createdAt,value
2023-04-29T00:02:13.375Z,6.31
2023-04-29T00:04:40.442Z,6.26
2023-04-29T00:07:07.560Z,6.19
2023-04-29T00:09:34.302Z,6.26
2023-04-29T00:12:02.453Z,6.25
2023-04-29T00:14:29.274Z,6.16
2023-04-29T00:16:56.123Z,6.07
2023-04-29T00:19:22.877Z,6.06
2023-04-29T00:21:49.708Z,6.07
2023-04-29T00:24:16.516Z,6.09
2023-04-29T00:26:43.584Z,6.16
2023-04-29T00:29:11.850Z,6.08
2023-04-29T00:31:38.726Z,5.99
2023-04-29T00:34:05.617Z,5.89
2023-04-29T00:36:32.545Z,5.74
2023-04-29T00:38:59.346Z,5.78
2023-04-29T00:41:26.314Z,5.79
2023-04-29T00:43:53.051Z,5.77
2023-04-29T00:46:21.324Z,5.70
2023-04-29T00:48:48.115Z,5.53
2023-04-29T00:51:16.637Z,5.40
2023-04-29T00:53:43.579Z,5.52
2023-04-29T00:56:10.656Z,5.50
2023-04-29T00:58:37.742Z,5.50
2023-04-29T01:01:04.850Z,5.48
2023-04-29T01:03:33.157Z,5.47
2023-04-29T01:06:09.185Z,5.35
2023-04-29T01:08:46.438Z,5.39
2023-04-29T01:11:16.106Z,5.38
2023-04-29T01:13:46.175Z,5.49
2023-04-29T01:16:21.472Z,5.50
2023-04-29T01:18:54.349Z,5.50
2023-04-29T01:21:21.529Z,5.52
2023-04-29T01:23:49.872Z,5.56
2023-04-29T01:26:16.647Z,5.56
2023-04-29T01:28:50.627Z,5.57
2023-04-29T01:31:22.595Z,5.58
2023-04-29T01:33:59.904Z,5.59
2023-04-29T01:36:36.930Z,5.60
2023-04-29T01:39:13.468Z,5.59
2023-04-29T01:41:44.356Z,5.53
2023-04-29T01:44:15.972Z,5.49
2023-04-29T01:46:44.522Z,5.44
2023-04-29T01:49:12.838Z,5.44
2023-04-29T01:51:39.646Z,5.48
2023-04-29T01:54:07.882Z,5.38
2023-04-29T01:56:34.659Z,5.34
2023-04-29T01:59:01.417Z,5.24
2023-04-29T02:01:28.200Z,5.20
2023-04-29T02:03:55.157Z,5.09
2023-04-29T02:06:22.073Z,5.24
2023-04-29T02:08:48.866Z,5.19
2023-04-29T02:11:16.976Z,5.14
2023-04-29T02:13:43.698Z,5.20
2023-04-29T02:16:12.153Z,5.20
2023-04-29T02:18:39.052Z,5.14
2023-04-29T02:21:05.872Z,5.15
2023-04-29T02:23:32.670Z,5.11
2023-04-29T02:25:59.574Z,5.15
2023-04-29T02:28:27.891Z,5.17
2023-04-29T02:30:54.717Z,5.04
2023-04-29T02:33:23.768Z,5.02
2023-04-29T02:35:50.702Z,5.09
2023-04-29T02:38:17.442Z,5.04
2023-04-29T02:40:45.005Z,5.07
2023-04-29T02:43:12.065Z,5.05
2023-04-29T02:45:40.449Z,5.07
2023-04-29T02:48:07.489Z,5.08
2023-04-29T02:50:34.550Z,5.01
2023-04-29T02:53:01.335Z,5.09
2023-04-29T02:55:28.091Z,5.03
2023-04-29T02:57:55.035Z,5.05
2023-04-29T03:00:22.050Z,5.04
2023-04-29T03:02:50.435Z,4.88
2023-04-29T03:05:17.307Z,4.95
2023-04-29T03:07:44.127Z,5.04
2023-04-29T03:10:10.850Z,5.15
2023-04-29T03:12:37.640Z,5.21
2023-04-29T03:15:05.658Z,5.13
2023-04-29T03:17:32.494Z,5.19
2023-04-29T03:20:00.667Z,5.16
2023-04-29T03:22:27.426Z,5.18
2023-04-29T03:24:54.200Z,5.22
2023-04-29T03:27:21.078Z,5.17
2023-04-29T03:29:47.803Z,5.15
2023-04-29T03:32:14.553Z,5.13
2023-04-29T03:34:41.287Z,5.07
2023-04-29T03:37:09.515Z,5.06
2023-04-29T03:39:36.240Z,5.06
2023-04-29T03:42:02.980Z,5.08
2023-04-29T03:44:29.798Z,5.09
2023-04-29T03:46:56.574Z,5.13
2023-04-29T03:49:23.321Z,5.09
2023-04-29T03:51:50.142Z,5.06
2023-04-29T03:54:18.405Z,5.04
2023-04-29T03:56:45.138Z,5.07
2023-04-29T03:59:11.868Z,5.10
2023-04-29T04:01:38.781Z,5.01
2023-04-29T04:04:05.843Z,5.11
2023-04-29T04:06:32.940Z,5.17
2023-04-29T04:08:59.844Z,5.13
2023-04-29T04:11:27.965Z,5.10
2023-04-29T04:13:54.796Z,5.12
2023-04-29T04:16:21.637Z,5.15
2023-04-29T04:18:48.386Z,5.21
2023-04-29T04:21:15.133Z,5.28
2023-04-29T04:23:41.865Z,5.28
2023-04-29T04:26:08.685Z,5.26
2023-04-29T04:28:36.874Z,5.27
2023-04-29T04:31:03.746Z,5.34
2023-04-29T04:33:30.495Z,5.24
2023-04-29T04:35:58.005Z,5.23
2023-04-29T04:38:24.788Z,5.36
2023-04-29T04:40:51.612Z,5.44
2023-04-29T04:43:18.343Z,5.49
2023-04-29T04:45:46.489Z,5.54
2023-04-29T04:48:13.324Z,5.58
2023-04-29T04:50:40.144Z,5.62
2023-04-29T04:53:06.972Z,5.64
2023-04-29T04:55:33.758Z,5.71
2023-04-29T04:58:00.586Z,5.74
2023-04-29T05:00:27.333Z,5.82
2023-04-29T05:02:55.951Z,5.84
2023-04-29T05:05:22.876Z,5.89
2023-04-29T05:07:49.594Z,5.89
2023-04-29T05:10:16.309Z,5.97
2023-04-29T05:12:43.028Z,5.97
2023-04-29T05:15:10.511Z,6.03
2023-04-29T05:17:37.400Z,6.09
2023-04-29T05:20:07.162Z,6.19
2023-04-29T05:22:34.054Z,6.25
2023-04-29T05:25:00.816Z,6.39
2023-04-29T05:27:27.587Z,6.40
2023-04-29T05:29:54.635Z,6.44
2023-04-29T05:32:21.786Z,6.47
2023-04-29T05:34:48.608Z,6.50
2023-04-29T05:37:17.395Z,6.61
2023-04-29T05:39:44.224Z,6.73
2023-04-29T05:42:11.028Z,6.82
2023-04-29T05:44:37.761Z,6.92
2023-04-29T05:47:04.532Z,7.02
2023-04-29T05:49:31.315Z,7.11
2023-04-29T05:51:58.277Z,7.18
2023-04-29T05:54:26.507Z,7.22
2023-04-29T05:56:53.308Z,7.27
2023-04-29T05:59:20.051Z,7.33
2023-04-29T06:01:46.858Z,7.37
2023-04-29T06:04:13.859Z,7.43
2023-04-29T06:06:41.977Z,7.51
2023-04-29T06:09:19.937Z,7.39
2023-04-29T06:11:55.132Z,7.45
2023-04-29T06:14:22.015Z,7.51
2023-04-29T06:16:49.111Z,7.59
2023-04-29T06:19:15.846Z,7.66
2023-04-29T06:21:42.735Z,7.75
2023-04-29T06:24:09.587Z,7.85
2023-04-29T06:26:36.418Z,7.97
2023-04-29T06:29:04.626Z,8.07
2023-04-29T06:31:31.452Z,8.19
2023-04-29T06:33:58.412Z,8.27
2023-04-29T06:36:25.353Z,8.39
2023-04-29T06:38:52.100Z,8.47
2023-04-29T06:41:18.899Z,8.45
2023-04-29T06:43:47.347Z,8.57
2023-04-29T06:46:16.907Z,8.71
2023-04-29T06:48:43.877Z,8.93
2023-04-29T06:51:10.666Z,9.14
2023-04-29T06:53:37.555Z,9.27
2023-04-29T06:56:04.856Z,9.35
2023-04-29T06:58:31.652Z,9.44
2023-04-29T07:00:58.500Z,9.50
2023-04-29T07:03:26.786Z,9.55
2023-04-29T07:05:53.677Z,9.52
2023-04-29T07:08:20.508Z,9.57
2023-04-29T07:10:54.125Z,9.63
2023-04-29T07:13:22.535Z,9.73
2023-04-29T07:15:49.348Z,9.81
2023-04-29T07:18:16.101Z,9.89
2023-04-29T07:20:44.488Z,9.96
2023-04-29T07:23:11.346Z,10.03
2023-04-29T07:25:38.179Z,10.06
2023-04-29T07:28:05.902Z,10.09
2023-04-29T07:30:33.300Z,9.99
2023-04-29T07:33:03.936Z,10.02
2023-04-29T07:35:57.778Z,10.11
2023-04-29T07:38:27.770Z,10.15
2023-04-29T07:40:54.608Z,10.25
2023-04-29T07:43:21.380Z,10.36
2023-04-29T07:46:08.796Z,10.52
2023-04-29T07:49:21.069Z,10.68
2023-04-29T07:52:36.958Z,10.80
2023-04-29T07:55:24.671Z,10.87
2023-04-29T07:57:53.987Z,10.94
2023-04-29T08:00:43.524Z,10.99
2023-04-29T08:06:28.833Z,11.12
2023-04-29T08:09:24.598Z,11.30
2023-04-29T08:11:51.952Z,11.44
2023-04-29T08:14:18.877Z,11.44
2023-04-29T08:16:45.634Z,11.53
2023-04-29T08:19:12.488Z,11.76
2023-04-29T08:21:39.551Z,12.02
2023-04-29T08:24:06.480Z,12.28
2023-04-29T08:26:34.731Z,12.48
2023-04-29T08:29:01.684Z,12.65
2023-04-29T08:31:28.816Z,12.86
2023-04-29T08:33:55.824Z,13.04
2023-04-29T08:36:22.724Z,13.28
2023-04-29T08:38:49.570Z,13.50
2023-04-29T08:41:16.346Z,13.33
2023-04-29T08:43:44.991Z,13.46
2023-04-29T08:46:12.355Z,13.61
2023-04-29T08:48:41.320Z,13.84
2023-04-29T08:51:11.917Z,14.25
2023-04-29T08:53:38.783Z,14.76
2023-04-29T08:56:13.420Z,14.97
2023-04-29T08:58:41.970Z,15.26
2023-04-29T09:01:10.501Z,15.55
2023-04-29T09:03:44.786Z,15.88
2023-04-29T09:06:12.570Z,16.17
2023-04-29T09:08:40.237Z,16.40
2023-04-29T09:11:09.109Z,16.64
2023-04-29T09:13:36.032Z,16.82
2023-04-29T09:16:02.921Z,17.10
2023-04-29T09:18:45.981Z,17.13
2023-04-29T09:21:22.186Z,17.36
2023-04-29T09:23:51.729Z,17.60
2023-04-29T09:26:19.339Z,17.79
2023-04-29T09:28:46.565Z,18.00
2023-04-29T09:31:14.164Z,18.15
2023-04-29T09:33:53.704Z,18.24
2023-04-29T09:36:38.106Z,17.97
2023-04-29T09:39:05.808Z,18.27
2023-04-29T09:41:33.078Z,18.49
2023-04-29T09:44:06.303Z,18.70
2023-04-29T09:46:33.450Z,18.74
2023-04-29T09:49:02.349Z,18.28
2023-04-29T09:51:29.117Z,18.26
2023-04-29T09:53:55.922Z,18.62
2023-04-29T09:56:22.677Z,18.84
2023-04-29T09:58:49.543Z,19.06
2023-04-29T10:01:17.066Z,19.28
2023-04-29T10:03:45.050Z,19.24
2023-04-29T10:06:14.304Z,19.46
2023-04-29T10:08:41.167Z,19.65
2023-04-29T10:11:08.021Z,19.92
2023-04-29T10:13:35.530Z,20.14
2023-04-29T10:16:11.382Z,20.12
2023-04-29T10:18:41.828Z,20.28
2023-04-29T10:21:09.259Z,20.54
2023-04-29T10:23:37.871Z,20.72
2023-04-29T10:26:07.526Z,20.70
2023-04-29T10:28:36.992Z,20.72
2023-04-29T10:31:05.574Z,20.80
2023-04-29T10:33:32.688Z,20.32
2023-04-29T10:36:00.131Z,20.56
2023-04-29T10:38:30.879Z,20.74
2023-04-29T10:41:03.043Z,20.64
2023-04-29T10:43:33.709Z,20.84
2023-04-29T10:46:23.320Z,21.10
2023-04-29T10:48:58.933Z,21.46
2023-04-29T10:51:31.722Z,21.64
2023-04-29T10:54:07.433Z,21.46
2023-04-29T10:56:41.701Z,21.66
2023-04-29T10:59:14.113Z,21.35
2023-04-29T11:01:43.336Z,21.48
2023-04-29T11:04:10.445Z,21.65
2023-04-29T11:06:42.431Z,21.78
2023-04-29T11:09:14.460Z,21.28
2023-04-29T11:11:47.600Z,21.18
2023-04-29T11:14:15.403Z,21.35
2023-04-29T11:16:49.366Z,21.51
2023-04-29T11:19:17.203Z,21.54
2023-04-29T11:21:45.851Z,21.75
2023-04-29T11:24:13.449Z,21.85
2023-04-29T11:26:40.408Z,21.88
2023-04-29T11:29:08.863Z,21.96
2023-04-29T11:31:35.795Z,21.83
2023-04-29T11:34:04.561Z,21.87
2023-04-29T11:36:32.322Z,21.69
2023-04-29T11:39:00.618Z,21.79
2023-04-29T11:41:27.895Z,21.82
2023-04-29T11:43:59.149Z,21.85
2023-04-29T11:46:31.592Z,21.95
2023-04-29T11:48:58.939Z,22.07
2023-04-29T11:51:25.835Z,22.19
2023-04-29T11:53:52.773Z,22.14
2023-04-29T11:56:22.008Z,21.51
2023-04-29T11:58:48.813Z,22.13
2023-04-29T12:01:15.731Z,22.33
2023-04-29T12:03:44.303Z,22.47
2023-04-29T12:06:13.695Z,22.66
2023-04-29T12:08:40.585Z,22.60
2023-04-29T12:11:08.026Z,22.50
2023-04-29T12:13:34.980Z,22.44
2023-04-29T12:16:02.481Z,22.17
2023-04-29T12:18:29.678Z,21.73
2023-04-29T12:20:57.928Z,21.58
2023-04-29T12:23:25.837Z,21.13
2023-04-29T12:25:54.913Z,20.66
2023-04-29T12:28:22.357Z,20.48
2023-04-29T12:30:50.394Z,20.44
2023-04-29T12:33:20.595Z,20.45
2023-04-29T12:35:48.050Z,20.32
2023-04-29T12:38:20.617Z,20.12
2023-04-29T12:40:47.634Z,20.21
2023-04-29T12:43:14.837Z,20.32
2023-04-29T12:45:41.582Z,20.38
2023-04-29T12:48:12.401Z,20.35
2023-04-29T12:50:49.985Z,19.63
2023-04-29T12:53:18.222Z,19.71
2023-04-29T12:55:44.983Z,19.81
2023-04-29T12:58:11.751Z,19.81
2023-04-29T13:00:38.631Z,19.69
2023-04-29T13:03:05.837Z,19.60
2023-04-29T13:05:32.887Z,19.49
2023-04-29T13:07:59.702Z,19.33
2023-04-29T13:10:28.142Z,19.10
2023-04-29T13:12:55.078Z,18.40
2023-04-29T13:15:21.789Z,18.51
2023-04-29T13:17:48.758Z,18.22
2023-04-29T13:20:15.583Z,18.13
2023-04-29T13:22:42.349Z,17.94
2023-04-29T13:25:09.980Z,17.66
2023-04-29T13:27:38.365Z,17.22
2023-04-29T13:30:06.012Z,16.55
2023-04-29T13:32:43.633Z,16.98
2023-04-29T13:35:12.906Z,16.85
2023-04-29T13:37:39.608Z,16.90
2023-04-29T13:40:08.258Z,16.95
2023-04-29T13:42:42.296Z,16.32
2023-04-29T13:45:16.372Z,16.33
2023-04-29T13:48:03.677Z,16.19
2023-04-29T13:56:23.418Z,15.99
2023-04-29T13:58:52.196Z,16.19
2023-04-29T14:01:37.869Z,16.45
2023-04-29T14:03:51.655Z,16.92
2023-04-29T14:06:18.693Z,17.21
2023-04-29T14:08:45.548Z,17.52
2023-04-29T14:11:12.302Z,17.77
2023-04-29T14:13:39.052Z,18.03
2023-04-29T14:16:08.592Z,18.22
2023-04-29T14:18:35.388Z,18.42
2023-04-29T14:21:02.137Z,18.59
2023-04-29T14:23:28.863Z,18.63
2023-04-29T14:26:06.198Z,18.69
2023-04-29T14:28:42.779Z,18.75
2023-04-29T14:31:11.084Z,18.80
2023-04-29T14:33:37.860Z,18.72
2023-04-29T14:36:05.306Z,18.69
2023-04-29T14:38:33.263Z,18.51
2023-04-29T14:41:00.000Z,18.45
2023-04-29T14:43:26.992Z,18.29
2023-04-29T14:45:53.847Z,18.27
2023-04-29T14:48:22.055Z,18.26
2023-04-29T14:50:49.368Z,18.28
2023-04-29T14:53:16.216Z,18.16
2023-04-29T14:55:43.243Z,18.08
2023-04-29T14:58:10.021Z,17.97
2023-04-29T15:00:36.794Z,18.08
2023-04-29T15:03:04.266Z,18.10
2023-04-29T15:05:32.704Z,17.96
2023-04-29T15:07:59.494Z,17.73
2023-04-29T15:10:26.423Z,17.60
2023-04-29T15:12:53.271Z,17.52
2023-04-29T15:15:20.282Z,17.30
2023-04-29T15:17:47.166Z,17.13
2023-04-29T15:20:14.043Z,16.73
2023-04-29T15:22:42.527Z,16.65
2023-04-29T15:25:09.991Z,16.58
2023-04-29T15:27:37.201Z,16.54
2023-04-29T15:30:04.612Z,16.45
2023-04-29T15:32:31.575Z,16.32
2023-04-29T15:34:59.232Z,16.19
2023-04-29T15:37:26.209Z,16.01
2023-04-29T15:39:54.567Z,15.47
2023-04-29T15:42:22.227Z,15.32
2023-04-29T15:44:50.152Z,15.16
2023-04-29T15:47:17.017Z,15.20
2023-04-29T15:49:44.028Z,15.34
2023-04-29T15:52:10.948Z,15.49
2023-04-29T15:54:37.772Z,15.58
2023-04-29T15:57:06.484Z,15.63
2023-04-29T15:59:33.257Z,15.62
2023-04-29T16:02:00.006Z,15.52
2023-04-29T16:04:26.802Z,15.26
2023-04-29T16:06:53.533Z,15.30
2023-04-29T16:09:20.343Z,15.29
2023-04-29T16:11:47.163Z,15.31
2023-04-29T16:14:15.368Z,15.32
2023-04-29T16:16:42.266Z,15.11
2023-04-29T16:19:09.501Z,15.11
2023-04-29T16:21:36.213Z,14.97
2023-04-29T16:24:03.128Z,14.85
2023-04-29T16:26:29.883Z,14.95
2023-04-29T16:28:56.693Z,15.00
2023-04-29T16:31:24.948Z,14.97
2023-04-29T16:33:51.805Z,14.84
2023-04-29T16:36:18.963Z,14.75
2023-04-29T16:38:46.416Z,14.68
2023-04-29T16:41:14.735Z,14.52
2023-04-29T16:43:42.066Z,14.35
2023-04-29T16:46:12.657Z,14.40
2023-04-29T16:48:43.333Z,14.28
2023-04-29T16:51:12.361Z,14.30
2023-04-29T16:53:45.673Z,14.30
2023-04-29T16:56:12.577Z,14.12
2023-04-29T16:58:39.300Z,14.04
2023-04-29T17:01:06.097Z,14.03
2023-04-29T17:03:33.017Z,14.04
2023-04-29T17:06:01.228Z,13.91
2023-04-29T17:08:28.150Z,13.99
2023-04-29T17:10:54.892Z,13.91
2023-04-29T17:13:21.646Z,13.87
2023-04-29T17:15:48.433Z,13.75
2023-04-29T17:18:15.290Z,13.63
2023-04-29T17:20:42.061Z,13.53
2023-04-29T17:23:10.225Z,13.36
2023-04-29T17:25:37.436Z,13.38
2023-04-29T17:28:04.763Z,13.26
2023-04-29T17:30:31.523Z,13.07
2023-04-29T17:32:58.374Z,12.93
2023-04-29T17:35:25.115Z,12.91
2023-04-29T17:37:51.967Z,12.82
2023-04-29T17:40:20.603Z,12.54
2023-04-29T17:42:47.392Z,12.35
2023-04-29T17:45:14.436Z,12.37
2023-04-29T17:47:41.304Z,12.29
2023-04-29T17:50:08.691Z,11.82
2023-04-29T17:52:36.659Z,11.77
2023-04-29T17:55:03.989Z,11.64
2023-04-29T17:57:32.146Z,11.40
2023-04-29T17:59:59.141Z,11.21
2023-04-29T18:02:26.004Z,11.25
2023-04-29T18:04:52.814Z,11.11
2023-04-29T18:07:19.604Z,11.04
2023-04-29T18:09:46.460Z,10.91
2023-04-29T18:12:13.328Z,10.78
2023-04-29T18:14:41.528Z,10.64
2023-04-29T18:17:08.509Z,10.57
2023-04-29T18:19:37.418Z,10.46
2023-04-29T18:22:04.145Z,10.29
2023-04-29T18:24:30.857Z,10.26
2023-04-29T18:26:57.686Z,10.03
2023-04-29T18:29:24.520Z,10.06
2023-04-29T18:31:52.678Z,9.90
2023-04-29T18:34:19.423Z,9.70
2023-04-29T18:36:47.280Z,9.75
2023-04-29T18:39:13.984Z,9.81
2023-04-29T18:41:40.812Z,9.85
2023-04-29T18:44:07.604Z,9.78
2023-04-29T18:46:34.625Z,9.72
2023-04-29T18:49:02.856Z,9.59
2023-04-29T18:51:29.666Z,9.47
2023-04-29T18:53:56.414Z,9.39
2023-04-29T18:56:23.238Z,9.33
2023-04-29T18:58:49.995Z,9.31
2023-04-29T19:01:16.730Z,9.33
2023-04-29T19:03:43.477Z,9.36
2023-04-29T19:06:11.690Z,9.41
2023-04-29T19:08:40.448Z,9.33
2023-04-29T19:11:08.380Z,9.21
2023-04-29T19:13:36.383Z,9.16
2023-04-29T19:16:04.503Z,9.05
2023-04-29T19:18:32.395Z,8.91
2023-04-29T19:21:01.110Z,8.85
2023-04-29T19:23:29.324Z,8.88
2023-04-29T19:25:56.105Z,9.01
2023-04-29T19:28:23.472Z,9.13
2023-04-29T19:30:50.295Z,9.15
2023-04-29T19:33:17.102Z,9.27
2023-04-29T19:35:43.987Z,9.37
2023-04-29T19:38:10.819Z,9.41
2023-04-29T19:40:39.024Z,9.47
2023-04-29T19:43:06.043Z,9.49
2023-04-29T19:45:32.838Z,9.43
2023-04-29T19:47:59.992Z,9.35
2023-04-29T19:50:26.872Z,9.34
2023-04-29T19:52:53.735Z,9.38
2023-04-29T19:55:20.650Z,9.41
2023-04-29T19:57:48.862Z,9.39
2023-04-29T20:00:15.630Z,9.41
2023-04-29T20:02:42.532Z,9.36
2023-04-29T20:05:09.466Z,9.37
2023-04-29T20:07:36.284Z,9.38
2023-04-29T20:10:03.263Z,9.39
2023-04-29T20:12:29.986Z,9.40
2023-04-29T20:14:58.128Z,9.37
2023-04-29T20:17:25.186Z,9.32
2023-04-29T20:19:52.273Z,9.26
2023-04-29T20:22:19.224Z,9.23
2023-04-29T20:24:45.969Z,9.21
2023-04-29T20:27:12.723Z,9.17
2023-04-29T20:29:39.542Z,9.17
2023-04-29T20:32:07.839Z,9.20
2023-04-29T20:34:34.733Z,9.14
2023-04-29T20:37:01.525Z,9.11
2023-04-29T20:39:28.568Z,9.11
2023-04-29T20:41:55.627Z,8.97
2023-04-29T20:44:22.640Z,8.72
2023-04-29T20:46:49.396Z,8.48
2023-04-29T20:49:17.602Z,8.36
2023-04-29T20:51:44.444Z,8.25
2023-04-29T20:54:11.179Z,8.13
2023-04-29T20:56:37.993Z,8.21
2023-04-29T20:59:04.865Z,8.30
2023-04-29T21:01:31.715Z,8.29
2023-04-29T21:03:58.533Z,8.22
2023-04-29T21:06:27.120Z,8.21
2023-04-29T21:08:54.133Z,8.16
2023-04-29T21:11:20.899Z,8.24
2023-04-29T21:13:47.648Z,8.22
2023-04-29T21:16:14.431Z,8.12
2023-04-29T21:18:41.188Z,8.13
2023-04-29T21:21:08.009Z,8.14
2023-04-29T21:23:36.289Z,8.09
2023-04-29T21:26:03.199Z,7.92
2023-04-29T21:28:29.994Z,7.90
2023-04-29T21:30:57.763Z,8.04
2023-04-29T21:33:24.751Z,8.02
2023-04-29T21:35:51.718Z,8.06
2023-04-29T21:38:18.512Z,8.08
2023-04-29T21:40:47.992Z,8.11
2023-04-29T21:43:16.877Z,8.18
2023-04-29T21:45:44.050Z,8.23
2023-04-29T21:48:14.887Z,8.21
2023-04-29T21:50:42.419Z,8.16
2023-04-29T21:53:09.308Z,8.16
2023-04-29T21:55:36.220Z,8.14
2023-04-29T21:58:04.534Z,8.06
2023-04-29T22:00:31.998Z,8.05
2023-04-29T22:02:59.865Z,8.06
2023-04-29T22:05:26.689Z,7.99
2023-04-29T22:07:53.594Z,7.89
2023-04-29T22:10:20.373Z,7.79
2023-04-29T22:12:47.104Z,7.67
2023-04-29T22:15:27.258Z,7.56
2023-04-29T22:17:54.828Z,7.27
2023-04-29T22:20:21.684Z,7.31
2023-04-29T22:22:48.432Z,7.46
2023-04-29T22:25:15.158Z,7.53
2023-04-29T22:27:41.984Z,7.64
2023-04-29T22:30:09.668Z,7.76
2023-04-29T22:32:38.036Z,7.81
2023-04-29T22:35:05.752Z,7.82
2023-04-29T22:37:32.552Z,7.90
2023-04-29T22:39:59.255Z,7.93
2023-04-29T22:42:26.021Z,7.89
2023-04-29T22:44:52.844Z,7.91
2023-04-29T22:47:19.581Z,7.90
2023-04-29T22:49:47.856Z,7.94
2023-04-29T22:52:14.597Z,7.94
2023-04-29T22:54:41.351Z,8.03
2023-04-29T22:57:08.197Z,8.01
2023-04-29T22:59:34.950Z,8.05
2023-04-29T23:02:01.705Z,8.01
2023-04-29T23:04:28.525Z,8.00
2023-04-29T23:06:56.715Z,8.06
2023-04-29T23:09:23.529Z,8.05
2023-04-29T23:11:50.254Z,7.99
2023-04-29T23:14:17.037Z,8.00
2023-04-29T23:16:43.872Z,8.05
2023-04-29T23:19:10.689Z,7.99
2023-04-29T23:21:37.450Z,8.02
2023-04-29T23:24:06.082Z,8.01
2023-04-29T23:26:32.804Z,8.11
2023-04-29T23:28:59.607Z,8.15
2023-04-29T23:31:26.438Z,8.16
2023-04-29T23:33:53.281Z,8.19
2023-04-29T23:36:20.040Z,8.21
2023-04-29T23:38:46.859Z,8.23
2023-04-29T23:41:14.966Z,8.25
2023-04-29T23:43:41.760Z,8.19
2023-04-29T23:46:08.567Z,8.20
2023-04-29T23:48:35.329Z,8.24
2023-04-29T23:51:02.096Z,8.28
2023-04-29T23:53:28.824Z,8.30
2023-04-29T23:55:55.554Z,8.13
2023-04-29T23:58:23.688Z,8.12
